sensor_id;sensor_type;location;lat;lon;timestamp;P1;durP1;ratioP1;P2;durP2;ratioP2
5823;SDS011;2938;52.254;12.988;2022-09-30T00:00:06;5.55;;;4.88;;
5823;SDS011;2938;52.254;12.988;2022-09-30T00:02:32;4.75;;;4.28;;
5823;SDS011;2938;52.254;12.988;2022-09-30T00:04:57;5.15;;;4.18;;
5823;SDS011;2938;52.254;12.988;2022-09-30T00:07:22;6.47;;;4.95;;
5823;SDS011;2938;52.254;12.988;2022-09-30T00:09:48;5.40;;;4.63;;
5823;SDS011;2938;52.254;12.988;2022-09-30T00:12:14;6.65;;;3.92;;
5823;SDS011;2938;52.254;12.988;2022-09-30T00:14:40;5.55;;;4.80;;
5823;SDS011;2938;52.254;12.988;2022-09-30T00:17:05;9.00;;;4.55;;
5823;SDS011;2938;52.254;12.988;2022-09-30T00:19:30;5.53;;;5.03;;
5823;SDS011;2938;52.254;12.988;2022-09-30T00:21:56;6.03;;;4.63;;
5823;SDS011;2938;52.254;12.988;2022-09-30T00:24:21;6.05;;;4.88;;
5823;SDS011;2938;52.254;12.988;2022-09-30T00:26:46;6.95;;;4.50;;
5823;SDS011;2938;52.254;12.988;2022-09-30T00:29:12;5.55;;;4.90;;
5823;SDS011;2938;52.254;12.988;2022-09-30T00:31:37;6.95;;;4.78;;
5823;SDS011;2938;52.254;12.988;2022-09-30T00:34:02;4.72;;;4.25;;
5823;SDS011;2938;52.254;12.988;2022-09-30T00:36:32;6.93;;;4.90;;
5823;SDS011;2938;52.254;12.988;2022-09-30T00:39:07;7.03;;;4.75;;
5823;SDS011;2938;52.254;12.988;2022-09-30T00:41:34;5.40;;;4.68;;
5823;SDS011;2938;52.254;12.988;2022-09-30T00:43:59;6.07;;;5.38;;
5823;SDS011;2938;52.254;12.988;2022-09-30T00:46:34;8.80;;;4.78;;
5823;SDS011;2938;52.254;12.988;2022-09-30T00:49:07;6.70;;;4.63;;
5823;SDS011;2938;52.254;12.988;2022-09-30T00:51:38;6.47;;;5.03;;
5823;SDS011;2938;52.254;12.988;2022-09-30T00:54:08;5.88;;;4.68;;
5823;SDS011;2938;52.254;12.988;2022-09-30T00:56:38;4.25;;;3.85;;
5823;SDS011;2938;52.254;12.988;2022-09-30T00:59:09;7.28;;;4.68;;
5823;SDS011;2938;52.254;12.988;2022-09-30T01:01:38;7.15;;;4.60;;
5823;SDS011;2938;52.254;12.988;2022-09-30T01:04:12;11.63;;;5.43;;
5823;SDS011;2938;52.254;12.988;2022-09-30T01:06:39;24.35;;;5.40;;
5823;SDS011;2938;52.254;12.988;2022-09-30T01:09:05;10.57;;;5.38;;
5823;SDS011;2938;52.254;12.988;2022-09-30T01:11:30;6.80;;;4.93;;
5823;SDS011;2938;52.254;12.988;2022-09-30T01:13:56;5.57;;;4.60;;
5823;SDS011;2938;52.254;12.988;2022-09-30T01:16:30;9.45;;;4.38;;
5823;SDS011;2938;52.254;12.988;2022-09-30T01:19:04;6.75;;;4.60;;
5823;SDS011;2938;52.254;12.988;2022-09-30T01:30:07;9.77;;;4.70;;
5823;SDS011;2938;52.254;12.988;2022-09-30T01:36:04;9.38;;;5.55;;
5823;SDS011;2938;52.254;12.988;2022-09-30T01:38:29;6.22;;;4.78;;
5823;SDS011;2938;52.254;12.988;2022-09-30T01:41:10;7.78;;;5.13;;
5823;SDS011;2938;52.254;12.988;2022-09-30T01:46:19;5.43;;;4.82;;
5823;SDS011;2938;52.254;12.988;2022-09-30T01:51:20;10.05;;;5.43;;
5823;SDS011;2938;52.254;12.988;2022-09-30T01:56:31;5.68;;;4.80;;
5823;SDS011;2938;52.254;12.988;2022-09-30T02:01:31;7.10;;;4.60;;
5823;SDS011;2938;52.254;12.988;2022-09-30T02:04:04;16.65;;;5.38;;
5823;SDS011;2938;52.254;12.988;2022-09-30T02:06:34;5.30;;;3.88;;
5823;SDS011;2938;52.254;12.988;2022-09-30T02:09:09;5.47;;;4.80;;
5823;SDS011;2938;52.254;12.988;2022-09-30T02:11:36;8.05;;;5.65;;
5823;SDS011;2938;52.254;12.988;2022-09-30T02:14:09;5.97;;;4.38;;
5823;SDS011;2938;52.254;12.988;2022-09-30T02:16:39;6.25;;;4.70;;
5823;SDS011;2938;52.254;12.988;2022-09-30T02:19:18;5.78;;;4.72;;
5823;SDS011;2938;52.254;12.988;2022-09-30T02:21:51;5.85;;;5.00;;
5823;SDS011;2938;52.254;12.988;2022-09-30T02:24:20;5.18;;;4.18;;
5823;SDS011;2938;52.254;12.988;2022-09-30T02:26:49;8.38;;;5.28;;
5823;SDS011;2938;52.254;12.988;2022-09-30T02:29:22;5.13;;;4.28;;
5823;SDS011;2938;52.254;12.988;2022-09-30T02:31:52;6.88;;;4.95;;
5823;SDS011;2938;52.254;12.988;2022-09-30T02:34:37;5.18;;;4.68;;
5823;SDS011;2938;52.254;12.988;2022-09-30T02:37:19;6.70;;;5.20;;
5823;SDS011;2938;52.254;12.988;2022-09-30T02:39:49;6.80;;;5.30;;
5823;SDS011;2938;52.254;12.988;2022-09-30T02:42:18;7.53;;;5.43;;
5823;SDS011;2938;52.254;12.988;2022-09-30T02:44:46;6.97;;;5.45;;
5823;SDS011;2938;52.254;12.988;2022-09-30T02:55:11;13.25;;;5.93;;
5823;SDS011;2938;52.254;12.988;2022-09-30T03:00:18;6.97;;;5.40;;
5823;SDS011;2938;52.254;12.988;2022-09-30T03:02:44;6.53;;;4.57;;
5823;SDS011;2938;52.254;12.988;2022-09-30T03:05:09;9.00;;;7.13;;
5823;SDS011;2938;52.254;12.988;2022-09-30T03:07:35;5.80;;;4.57;;
5823;SDS011;2938;52.254;12.988;2022-09-30T03:10:05;8.25;;;5.18;;
5823;SDS011;2938;52.254;12.988;2022-09-30T03:18:03;5.65;;;4.60;;
5823;SDS011;2938;52.254;12.988;2022-09-30T03:20:37;7.03;;;5.03;;
5823;SDS011;2938;52.254;12.988;2022-09-30T03:23:10;8.70;;;4.50;;
5823;SDS011;2938;52.254;12.988;2022-09-30T03:25:51;10.88;;;5.38;;
5823;SDS011;2938;52.254;12.988;2022-09-30T03:28:21;8.57;;;4.50;;
5823;SDS011;2938;52.254;12.988;2022-09-30T03:31:02;8.55;;;6.05;;
5823;SDS011;2938;52.254;12.988;2022-09-30T03:33:34;6.00;;;5.40;;
5823;SDS011;2938;52.254;12.988;2022-09-30T03:38:41;6.30;;;4.97;;
5823;SDS011;2938;52.254;12.988;2022-09-30T03:46:35;7.78;;;4.68;;
5823;SDS011;2938;52.254;12.988;2022-09-30T03:51:34;5.80;;;4.40;;
5823;SDS011;2938;52.254;12.988;2022-09-30T03:54:00;8.00;;;6.03;;
5823;SDS011;2938;52.254;12.988;2022-09-30T03:56:29;5.03;;;4.40;;
5823;SDS011;2938;52.254;12.988;2022-09-30T03:58:55;8.18;;;4.65;;
5823;SDS011;2938;52.254;12.988;2022-09-30T04:01:21;7.22;;;5.10;;
5823;SDS011;2938;52.254;12.988;2022-09-30T04:03:50;7.22;;;4.97;;
5823;SDS011;2938;52.254;12.988;2022-09-30T04:06:17;7.70;;;5.75;;
5823;SDS011;2938;52.254;12.988;2022-09-30T04:08:44;8.18;;;5.93;;
5823;SDS011;2938;52.254;12.988;2022-09-30T04:11:09;14.02;;;6.00;;
5823;SDS011;2938;52.254;12.988;2022-09-30T04:13:36;5.55;;;4.60;;
5823;SDS011;2938;52.254;12.988;2022-09-30T04:16:01;8.27;;;5.00;;
5823;SDS011;2938;52.254;12.988;2022-09-30T04:18:27;6.72;;;5.65;;
5823;SDS011;2938;52.254;12.988;2022-09-30T04:20:55;7.75;;;5.00;;
5823;SDS011;2938;52.254;12.988;2022-09-30T04:23:21;11.15;;;5.95;;
5823;SDS011;2938;52.254;12.988;2022-09-30T04:25:53;13.02;;;5.80;;
5823;SDS011;2938;52.254;12.988;2022-09-30T04:28:18;6.60;;;5.25;;
5823;SDS011;2938;52.254;12.988;2022-09-30T04:30:44;5.45;;;4.35;;
5823;SDS011;2938;52.254;12.988;2022-09-30T04:33:09;5.75;;;5.15;;
5823;SDS011;2938;52.254;12.988;2022-09-30T04:35:36;8.27;;;5.30;;
5823;SDS011;2938;52.254;12.988;2022-09-30T04:38:03;10.73;;;4.75;;
5823;SDS011;2938;52.254;12.988;2022-09-30T04:40:31;6.65;;;5.50;;
5823;SDS011;2938;52.254;12.988;2022-09-30T04:42:56;10.02;;;5.38;;
5823;SDS011;2938;52.254;12.988;2022-09-30T04:45:22;6.95;;;5.25;;
5823;SDS011;2938;52.254;12.988;2022-09-30T04:47:48;10.30;;;6.57;;
5823;SDS011;2938;52.254;12.988;2022-09-30T04:50:13;10.63;;;6.70;;
5823;SDS011;2938;52.254;12.988;2022-09-30T04:52:42;10.35;;;6.20;;
5823;SDS011;2938;52.254;12.988;2022-09-30T04:55:08;10.43;;;6.68;;
5823;SDS011;2938;52.254;12.988;2022-09-30T04:57:33;8.68;;;7.22;;
5823;SDS011;2938;52.254;12.988;2022-09-30T04:59:59;12.02;;;7.35;;
5823;SDS011;2938;52.254;12.988;2022-09-30T05:02:24;8.65;;;6.90;;
5823;SDS011;2938;52.254;12.988;2022-09-30T05:04:50;8.00;;;6.05;;
5823;SDS011;2938;52.254;12.988;2022-09-30T05:07:15;13.05;;;6.03;;
5823;SDS011;2938;52.254;12.988;2022-09-30T05:09:40;7.32;;;5.63;;
5823;SDS011;2938;52.254;12.988;2022-09-30T05:12:06;7.60;;;6.07;;
5823;SDS011;2938;52.254;12.988;2022-09-30T05:14:32;10.65;;;5.40;;
5823;SDS011;2938;52.254;12.988;2022-09-30T05:16:57;8.68;;;5.75;;
5823;SDS011;2938;52.254;12.988;2022-09-30T05:19:22;8.25;;;5.40;;
5823;SDS011;2938;52.254;12.988;2022-09-30T05:21:48;7.82;;;5.80;;
5823;SDS011;2938;52.254;12.988;2022-09-30T05:24:13;7.60;;;6.55;;
5823;SDS011;2938;52.254;12.988;2022-09-30T05:26:38;8.93;;;7.15;;
5823;SDS011;2938;52.254;12.988;2022-09-30T05:29:08;7.35;;;6.32;;
5823;SDS011;2938;52.254;12.988;2022-09-30T05:31:33;9.27;;;6.65;;
5823;SDS011;2938;52.254;12.988;2022-09-30T05:33:59;6.57;;;5.32;;
5823;SDS011;2938;52.254;12.988;2022-09-30T05:36:28;13.45;;;7.22;;
5823;SDS011;2938;52.254;12.988;2022-09-30T05:38:54;8.35;;;6.38;;
5823;SDS011;2938;52.254;12.988;2022-09-30T05:41:19;7.15;;;5.68;;
5823;SDS011;2938;52.254;12.988;2022-09-30T05:43:45;9.38;;;6.60;;
5823;SDS011;2938;52.254;12.988;2022-09-30T05:46:11;18.88;;;7.22;;
5823;SDS011;2938;52.254;12.988;2022-09-30T05:48:37;9.50;;;6.40;;
5823;SDS011;2938;52.254;12.988;2022-09-30T05:51:03;10.25;;;7.18;;
5823;SDS011;2938;52.254;12.988;2022-09-30T05:53:29;12.20;;;6.60;;
5823;SDS011;2938;52.254;12.988;2022-09-30T05:55:55;8.02;;;5.43;;
5823;SDS011;2938;52.254;12.988;2022-09-30T05:58:21;13.43;;;7.15;;
5823;SDS011;2938;52.254;12.988;2022-09-30T06:00:47;14.85;;;9.27;;
5823;SDS011;2938;52.254;12.988;2022-09-30T06:03:12;13.68;;;8.13;;
5823;SDS011;2938;52.254;12.988;2022-09-30T06:05:38;8.38;;;6.60;;
5823;SDS011;2938;52.254;12.988;2022-09-30T06:08:04;14.35;;;6.50;;
5823;SDS011;2938;52.254;12.988;2022-09-30T06:10:32;10.23;;;7.25;;
5823;SDS011;2938;52.254;12.988;2022-09-30T06:12:59;14.43;;;7.43;;
5823;SDS011;2938;52.254;12.988;2022-09-30T06:15:29;9.48;;;6.53;;
5823;SDS011;2938;52.254;12.988;2022-09-30T06:17:55;9.57;;;5.90;;
5823;SDS011;2938;52.254;12.988;2022-09-30T06:20:26;12.55;;;5.88;;
5823;SDS011;2938;52.254;12.988;2022-09-30T06:22:51;5.15;;;4.60;;
5823;SDS011;2938;52.254;12.988;2022-09-30T06:25:18;5.97;;;5.25;;
5823;SDS011;2938;52.254;12.988;2022-09-30T06:27:44;9.82;;;5.88;;
5823;SDS011;2938;52.254;12.988;2022-09-30T06:30:17;9.02;;;6.57;;
5823;SDS011;2938;52.254;12.988;2022-09-30T06:32:43;13.73;;;6.87;;
5823;SDS011;2938;52.254;12.988;2022-09-30T06:35:09;11.15;;;6.47;;
5823;SDS011;2938;52.254;12.988;2022-09-30T06:37:34;10.30;;;8.88;;
5823;SDS011;2938;52.254;12.988;2022-09-30T06:40:01;9.88;;;7.10;;
5823;SDS011;2938;52.254;12.988;2022-09-30T06:42:34;9.40;;;7.97;;
5823;SDS011;2938;52.254;12.988;2022-09-30T06:45:05;11.55;;;9.73;;
5823;SDS011;2938;52.254;12.988;2022-09-30T06:47:31;17.73;;;8.98;;
5823;SDS011;2938;52.254;12.988;2022-09-30T06:50:02;14.00;;;8.20;;
5823;SDS011;2938;52.254;12.988;2022-09-30T06:52:27;11.40;;;8.50;;
5823;SDS011;2938;52.254;12.988;2022-09-30T06:55:02;12.95;;;9.15;;
5823;SDS011;2938;52.254;12.988;2022-09-30T06:57:27;13.65;;;9.32;;
5823;SDS011;2938;52.254;12.988;2022-09-30T06:59:52;10.90;;;9.02;;
5823;SDS011;2938;52.254;12.988;2022-09-30T07:02:18;14.25;;;9.63;;
5823;SDS011;2938;52.254;12.988;2022-09-30T07:04:44;13.40;;;10.93;;
5823;SDS011;2938;52.254;12.988;2022-09-30T07:07:09;11.45;;;8.70;;
5823;SDS011;2938;52.254;12.988;2022-09-30T07:09:35;11.13;;;8.90;;
5823;SDS011;2938;52.254;12.988;2022-09-30T07:12:01;17.77;;;9.68;;
5823;SDS011;2938;52.254;12.988;2022-09-30T07:14:26;22.33;;;10.95;;
5823;SDS011;2938;52.254;12.988;2022-09-30T07:16:52;18.30;;;11.70;;
5823;SDS011;2938;52.254;12.988;2022-09-30T07:19:20;16.35;;;11.25;;
5823;SDS011;2938;52.254;12.988;2022-09-30T07:21:47;15.75;;;12.27;;
5823;SDS011;2938;52.254;12.988;2022-09-30T07:24:14;20.10;;;12.50;;
5823;SDS011;2938;52.254;12.988;2022-09-30T07:26:40;14.80;;;11.07;;
5823;SDS011;2938;52.254;12.988;2022-09-30T07:29:05;20.13;;;12.23;;
5823;SDS011;2938;52.254;12.988;2022-09-30T07:31:37;13.63;;;11.20;;
5823;SDS011;2938;52.254;12.988;2022-09-30T07:34:06;18.45;;;11.68;;
5823;SDS011;2938;52.254;12.988;2022-09-30T07:36:36;17.90;;;12.85;;
5823;SDS011;2938;52.254;12.988;2022-09-30T07:39:06;19.40;;;11.20;;
5823;SDS011;2938;52.254;12.988;2022-09-30T07:41:34;17.52;;;10.93;;
5823;SDS011;2938;52.254;12.988;2022-09-30T07:44:01;21.85;;;11.65;;
5823;SDS011;2938;52.254;12.988;2022-09-30T07:46:33;10.93;;;9.73;;
5823;SDS011;2938;52.254;12.988;2022-09-30T07:49:03;11.32;;;9.93;;
5823;SDS011;2938;52.254;12.988;2022-09-30T07:51:32;23.65;;;9.93;;
5823;SDS011;2938;52.254;12.988;2022-09-30T07:54:00;12.73;;;10.85;;
5823;SDS011;2938;52.254;12.988;2022-09-30T07:56:27;13.90;;;9.68;;
5823;SDS011;2938;52.254;12.988;2022-09-30T07:58:56;9.88;;;8.77;;
5823;SDS011;2938;52.254;12.988;2022-09-30T08:01:24;10.23;;;8.77;;
5823;SDS011;2938;52.254;12.988;2022-09-30T08:03:57;10.68;;;8.90;;
5823;SDS011;2938;52.254;12.988;2022-09-30T08:06:23;13.68;;;8.25;;
5823;SDS011;2938;52.254;12.988;2022-09-30T08:08:50;9.35;;;7.70;;
5823;SDS011;2938;52.254;12.988;2022-09-30T08:11:20;10.88;;;7.55;;
5823;SDS011;2938;52.254;12.988;2022-09-30T08:13:53;10.70;;;8.65;;
5823;SDS011;2938;52.254;12.988;2022-09-30T08:16:20;11.15;;;7.25;;
5823;SDS011;2938;52.254;12.988;2022-09-30T08:18:46;7.97;;;7.18;;
5823;SDS011;2938;52.254;12.988;2022-09-30T08:21:11;11.88;;;6.72;;
5823;SDS011;2938;52.254;12.988;2022-09-30T08:23:38;7.70;;;6.85;;
5823;SDS011;2938;52.254;12.988;2022-09-30T08:26:07;10.18;;;7.30;;
5823;SDS011;2938;52.254;12.988;2022-09-30T08:28:34;10.73;;;8.25;;
5823;SDS011;2938;52.254;12.988;2022-09-30T08:31:04;9.90;;;6.88;;
5823;SDS011;2938;52.254;12.988;2022-09-30T08:33:29;7.93;;;7.15;;
5823;SDS011;2938;52.254;12.988;2022-09-30T08:35:55;9.85;;;6.70;;
5823;SDS011;2938;52.254;12.988;2022-09-30T08:38:20;8.23;;;6.97;;
5823;SDS011;2938;52.254;12.988;2022-09-30T08:40:51;11.65;;;7.53;;
5823;SDS011;2938;52.254;12.988;2022-09-30T08:46:15;7.85;;;6.85;;
5823;SDS011;2938;52.254;12.988;2022-09-30T08:49:01;10.85;;;7.13;;
5823;SDS011;2938;52.254;12.988;2022-09-30T08:51:35;9.00;;;8.10;;
5823;SDS011;2938;52.254;12.988;2022-09-30T08:54:04;8.48;;;7.28;;
5823;SDS011;2938;52.254;12.988;2022-09-30T08:56:31;7.85;;;7.13;;
5823;SDS011;2938;52.254;12.988;2022-09-30T08:58:59;9.90;;;8.88;;
5823;SDS011;2938;52.254;12.988;2022-09-30T09:02:12;7.40;;;6.70;;
5823;SDS011;2938;52.254;12.988;2022-09-30T09:04:42;9.30;;;7.63;;
5823;SDS011;2938;52.254;12.988;2022-09-30T09:13:04;8.25;;;7.25;;
5823;SDS011;2938;52.254;12.988;2022-09-30T09:15:43;11.00;;;7.93;;
5823;SDS011;2938;52.254;12.988;2022-09-30T09:18:16;9.93;;;6.20;;
5823;SDS011;2938;52.254;12.988;2022-09-30T09:20:57;9.68;;;7.60;;
5823;SDS011;2938;52.254;12.988;2022-09-30T09:23:24;10.25;;;7.50;;
5823;SDS011;2938;52.254;12.988;2022-09-30T09:25:51;10.63;;;8.50;;
5823;SDS011;2938;52.254;12.988;2022-09-30T09:28:24;10.27;;;7.43;;
5823;SDS011;2938;52.254;12.988;2022-09-30T09:31:01;8.20;;;6.90;;
5823;SDS011;2938;52.254;12.988;2022-09-30T09:33:29;7.80;;;7.10;;
5823;SDS011;2938;52.254;12.988;2022-09-30T09:36:01;7.90;;;7.10;;
5823;SDS011;2938;52.254;12.988;2022-09-30T09:54:48;6.47;;;5.85;;
5823;SDS011;2938;52.254;12.988;2022-09-30T09:57:19;11.43;;;6.13;;
5823;SDS011;2938;52.254;12.988;2022-09-30T10:00:00;7.95;;;4.68;;
5823;SDS011;2938;52.254;12.988;2022-09-30T10:02:57;6.68;;;5.53;;
5823;SDS011;2938;52.254;12.988;2022-09-30T10:05:25;6.00;;;5.45;;
5823;SDS011;2938;52.254;12.988;2022-09-30T10:08:07;7.65;;;5.30;;
5823;SDS011;2938;52.254;12.988;2022-09-30T10:10:42;4.90;;;4.30;;
5823;SDS011;2938;52.254;12.988;2022-09-30T10:13:16;5.20;;;4.28;;
5823;SDS011;2938;52.254;12.988;2022-09-30T10:15:49;7.50;;;4.32;;
5823;SDS011;2938;52.254;12.988;2022-09-30T10:18:37;8.95;;;4.80;;
5823;SDS011;2938;52.254;12.988;2022-09-30T10:21:06;6.65;;;4.53;;
5823;SDS011;2938;52.254;12.988;2022-09-30T10:23:43;10.38;;;4.20;;
5823;SDS011;2938;52.254;12.988;2022-09-30T10:28:44;9.23;;;3.85;;
5823;SDS011;2938;52.254;12.988;2022-09-30T10:31:24;9.70;;;4.68;;
5823;SDS011;2938;52.254;12.988;2022-09-30T10:36:38;6.75;;;5.18;;
5823;SDS011;2938;52.254;12.988;2022-09-30T10:39:06;10.98;;;4.50;;
5823;SDS011;2938;52.254;12.988;2022-09-30T10:41:33;6.75;;;4.30;;
5823;SDS011;2938;52.254;12.988;2022-09-30T10:44:01;6.00;;;4.50;;
5823;SDS011;2938;52.254;12.988;2022-09-30T10:46:32;8.15;;;5.00;;
5823;SDS011;2938;52.254;12.988;2022-09-30T10:49:05;7.47;;;5.55;;
5823;SDS011;2938;52.254;12.988;2022-09-30T10:51:33;9.55;;;5.93;;
5823;SDS011;2938;52.254;12.988;2022-09-30T10:53:59;6.25;;;4.40;;
5823;SDS011;2938;52.254;12.988;2022-09-30T10:56:32;8.80;;;6.45;;
5823;SDS011;2938;52.254;12.988;2022-09-30T10:58:59;8.10;;;6.13;;
5823;SDS011;2938;52.254;12.988;2022-09-30T11:01:27;7.03;;;5.20;;
5823;SDS011;2938;52.254;12.988;2022-09-30T11:04:00;13.20;;;4.72;;
5823;SDS011;2938;52.254;12.988;2022-09-30T11:06:34;6.07;;;4.32;;
5823;SDS011;2938;52.254;12.988;2022-09-30T11:11:37;5.90;;;4.95;;
5823;SDS011;2938;52.254;12.988;2022-09-30T11:16:46;9.30;;;3.50;;
5823;SDS011;2938;52.254;12.988;2022-09-30T11:22:24;6.78;;;3.60;;
5823;SDS011;2938;52.254;12.988;2022-09-30T11:24:54;5.60;;;3.60;;
5823;SDS011;2938;52.254;12.988;2022-09-30T11:30:19;9.05;;;3.97;;
5823;SDS011;2938;52.254;12.988;2022-09-30T11:33:05;10.52;;;3.03;;
5823;SDS011;2938;52.254;12.988;2022-09-30T11:35:57;7.47;;;3.20;;
5823;SDS011;2938;52.254;12.988;2022-09-30T11:38:46;3.00;;;2.45;;
5823;SDS011;2938;52.254;12.988;2022-09-30T11:41:27;2.95;;;2.35;;
5823;SDS011;2938;52.254;12.988;2022-09-30T11:53:17;7.72;;;4.47;;
5823;SDS011;2938;52.254;12.988;2022-09-30T11:58:50;2.30;;;2.10;;
5823;SDS011;2938;52.254;12.988;2022-09-30T12:01:23;3.63;;;2.45;;
5823;SDS011;2938;52.254;12.988;2022-09-30T12:03:58;5.00;;;2.15;;
5823;SDS011;2938;52.254;12.988;2022-09-30T12:06:28;3.67;;;1.85;;
5823;SDS011;2938;52.254;12.988;2022-09-30T12:09:00;3.78;;;2.33;;
5823;SDS011;2938;52.254;12.988;2022-09-30T12:11:33;8.52;;;3.33;;
5823;SDS011;2938;52.254;12.988;2022-09-30T12:14:05;3.67;;;2.72;;
5823;SDS011;2938;52.254;12.988;2022-09-30T12:16:35;3.65;;;2.38;;
5823;SDS011;2938;52.254;12.988;2022-09-30T12:19:10;4.28;;;2.92;;
5823;SDS011;2938;52.254;12.988;2022-09-30T12:21:39;4.20;;;3.13;;
5823;SDS011;2938;52.254;12.988;2022-09-30T12:26:49;4.45;;;2.30;;
5823;SDS011;2938;52.254;12.988;2022-09-30T12:29:21;3.13;;;2.42;;
5823;SDS011;2938;52.254;12.988;2022-09-30T12:32:24;4.50;;;2.38;;
5823;SDS011;2938;52.254;12.988;2022-09-30T12:46:51;4.65;;;2.03;;
5823;SDS011;2938;52.254;12.988;2022-09-30T12:49:22;2.97;;;2.10;;
5823;SDS011;2938;52.254;12.988;2022-09-30T12:51:51;5.63;;;1.85;;
5823;SDS011;2938;52.254;12.988;2022-09-30T12:56:46;3.20;;;2.08;;
5823;SDS011;2938;52.254;12.988;2022-09-30T13:01:44;2.92;;;1.77;;
5823;SDS011;2938;52.254;12.988;2022-09-30T13:04:14;4.97;;;1.95;;
5823;SDS011;2938;52.254;12.988;2022-09-30T13:11:44;3.50;;;1.90;;
5823;SDS011;2938;52.254;12.988;2022-09-30T13:14:13;1.55;;;1.42;;
5823;SDS011;2938;52.254;12.988;2022-09-30T13:30:47;4.55;;;2.40;;
5823;SDS011;2938;52.254;12.988;2022-09-30T13:40:48;1.58;;;1.48;;
5823;SDS011;2938;52.254;12.988;2022-09-30T13:43:17;1.83;;;1.58;;
5823;SDS011;2938;52.254;12.988;2022-09-30T13:45:46;5.03;;;1.92;;
5823;SDS011;2938;52.254;12.988;2022-09-30T13:48:14;2.50;;;1.45;;
5823;SDS011;2938;52.254;12.988;2022-09-30T13:50:43;3.17;;;2.25;;
5823;SDS011;2938;52.254;12.988;2022-09-30T13:53:11;2.30;;;1.73;;
5823;SDS011;2938;52.254;12.988;2022-09-30T13:55:46;6.45;;;2.50;;
5823;SDS011;2938;52.254;12.988;2022-09-30T14:04:00;2.17;;;1.92;;
5823;SDS011;2938;52.254;12.988;2022-09-30T14:07:02;4.28;;;2.47;;
5823;SDS011;2938;52.254;12.988;2022-09-30T14:09:36;2.50;;;2.00;;
5823;SDS011;2938;52.254;12.988;2022-09-30T14:15:48;3.70;;;2.30;;
5823;SDS011;2938;52.254;12.988;2022-09-30T14:17:50;5.67;;;2.00;;
5823;SDS011;2938;52.254;12.988;2022-09-30T14:23:54;7.05;;;3.13;;
5823;SDS011;2938;52.254;12.988;2022-09-30T14:29:03;2.25;;;1.80;;
5823;SDS011;2938;52.254;12.988;2022-09-30T14:31:42;3.65;;;2.13;;
5823;SDS011;2938;52.254;12.988;2022-09-30T14:34:09;9.35;;;2.90;;
5823;SDS011;2938;52.254;12.988;2022-09-30T14:36:36;4.95;;;2.90;;
5823;SDS011;2938;52.254;12.988;2022-09-30T14:39:02;5.50;;;2.60;;
5823;SDS011;2938;52.254;12.988;2022-09-30T14:41:31;4.80;;;2.15;;
5823;SDS011;2938;52.254;12.988;2022-09-30T14:43:58;5.75;;;2.72;;
5823;SDS011;2938;52.254;12.988;2022-09-30T14:46:29;20.05;;;3.45;;
5823;SDS011;2938;52.254;12.988;2022-09-30T14:49:07;8.45;;;3.38;;
5823;SDS011;2938;52.254;12.988;2022-09-30T14:51:46;3.30;;;3.00;;
5823;SDS011;2938;52.254;12.988;2022-09-30T14:54:19;7.53;;;3.03;;
5823;SDS011;2938;52.254;12.988;2022-09-30T14:56:46;6.68;;;2.88;;
5823;SDS011;2938;52.254;12.988;2022-09-30T14:59:21;5.53;;;2.33;;
5823;SDS011;2938;52.254;12.988;2022-09-30T15:01:55;3.70;;;2.97;;
5823;SDS011;2938;52.254;12.988;2022-09-30T15:04:25;5.35;;;2.72;;
5823;SDS011;2938;52.254;12.988;2022-09-30T15:06:54;3.08;;;2.35;;
5823;SDS011;2938;52.254;12.988;2022-09-30T15:09:34;2.45;;;2.28;;
5823;SDS011;2938;52.254;12.988;2022-09-30T15:12:14;5.38;;;2.70;;
5823;SDS011;2938;52.254;12.988;2022-09-30T15:17:19;5.72;;;3.10;;
5823;SDS011;2938;52.254;12.988;2022-09-30T15:19:46;4.60;;;3.60;;
5823;SDS011;2938;52.254;12.988;2022-09-30T15:22:12;4.20;;;3.80;;
5823;SDS011;2938;52.254;12.988;2022-09-30T15:24:38;7.47;;;3.42;;
5823;SDS011;2938;52.254;12.988;2022-09-30T15:27:04;5.38;;;4.00;;
5823;SDS011;2938;52.254;12.988;2022-09-30T15:29:31;9.35;;;3.78;;
5823;SDS011;2938;52.254;12.988;2022-09-30T15:32:03;3.95;;;2.83;;
5823;SDS011;2938;52.254;12.988;2022-09-30T15:34:39;7.63;;;3.35;;
5823;SDS011;2938;52.254;12.988;2022-09-30T15:37:04;5.13;;;2.92;;
5823;SDS011;2938;52.254;12.988;2022-09-30T15:39:36;4.40;;;3.03;;
5823;SDS011;2938;52.254;12.988;2022-09-30T15:42:36;10.27;;;2.95;;
5823;SDS011;2938;52.254;12.988;2022-09-30T15:48:31;5.30;;;3.08;;
5823;SDS011;2938;52.254;12.988;2022-09-30T15:50:49;9.32;;;3.47;;
5823;SDS011;2938;52.254;12.988;2022-09-30T15:53:25;6.50;;;2.75;;
5823;SDS011;2938;52.254;12.988;2022-09-30T15:55:51;5.25;;;3.95;;
5823;SDS011;2938;52.254;12.988;2022-09-30T16:03:34;5.30;;;3.47;;
5823;SDS011;2938;52.254;12.988;2022-09-30T16:06:09;10.10;;;3.83;;
5823;SDS011;2938;52.254;12.988;2022-09-30T16:08:44;5.78;;;3.70;;
5823;SDS011;2938;52.254;12.988;2022-09-30T16:11:27;8.63;;;3.58;;
5823;SDS011;2938;52.254;12.988;2022-09-30T16:13:54;7.05;;;3.30;;
5823;SDS011;2938;52.254;12.988;2022-09-30T16:16:22;7.97;;;3.05;;
5823;SDS011;2938;52.254;12.988;2022-09-30T16:18:50;10.13;;;3.50;;
5823;SDS011;2938;52.254;12.988;2022-09-30T16:21:27;8.15;;;4.15;;
5823;SDS011;2938;52.254;12.988;2022-09-30T16:23:52;4.55;;;3.50;;
5823;SDS011;2938;52.254;12.988;2022-09-30T16:26:19;6.40;;;3.33;;
5823;SDS011;2938;52.254;12.988;2022-09-30T16:28:48;6.00;;;3.65;;
5823;SDS011;2938;52.254;12.988;2022-09-30T16:31:13;5.07;;;4.55;;
5823;SDS011;2938;52.254;12.988;2022-09-30T16:33:40;4.53;;;4.03;;
5823;SDS011;2938;52.254;12.988;2022-09-30T16:36:07;4.10;;;3.67;;
5823;SDS011;2938;52.254;12.988;2022-09-30T16:38:33;8.57;;;4.60;;
5823;SDS011;2938;52.254;12.988;2022-09-30T16:41:00;12.73;;;4.22;;
5823;SDS011;2938;52.254;12.988;2022-09-30T16:43:27;5.45;;;4.07;;
5823;SDS011;2938;52.254;12.988;2022-09-30T16:45:53;4.85;;;3.63;;
5823;SDS011;2938;52.254;12.988;2022-09-30T16:48:18;3.95;;;3.55;;
5823;SDS011;2938;52.254;12.988;2022-09-30T16:50:47;7.57;;;4.05;;
5823;SDS011;2938;52.254;12.988;2022-09-30T16:53:16;5.68;;;4.28;;
5823;SDS011;2938;52.254;12.988;2022-09-30T16:55:44;6.90;;;4.38;;
5823;SDS011;2938;52.254;12.988;2022-09-30T16:58:10;8.35;;;4.07;;
5823;SDS011;2938;52.254;12.988;2022-09-30T17:00:42;7.70;;;5.40;;
5823;SDS011;2938;52.254;12.988;2022-09-30T17:03:09;13.00;;;5.63;;
5823;SDS011;2938;52.254;12.988;2022-09-30T17:05:37;12.68;;;6.22;;
5823;SDS011;2938;52.254;12.988;2022-09-30T17:08:03;8.20;;;6.38;;
5823;SDS011;2938;52.254;12.988;2022-09-30T17:10:30;16.30;;;6.75;;
5823;SDS011;2938;52.254;12.988;2022-09-30T17:12:57;11.88;;;7.13;;
5823;SDS011;2938;52.254;12.988;2022-09-30T17:15:27;9.23;;;5.60;;
5823;SDS011;2938;52.254;12.988;2022-09-30T17:17:54;8.65;;;4.53;;
5823;SDS011;2938;52.254;12.988;2022-09-30T17:20:20;9.32;;;6.05;;
5823;SDS011;2938;52.254;12.988;2022-09-30T17:22:46;10.25;;;5.03;;
5823;SDS011;2938;52.254;12.988;2022-09-30T17:25:12;4.25;;;3.83;;
5823;SDS011;2938;52.254;12.988;2022-09-30T17:27:38;5.93;;;4.07;;
5823;SDS011;2938;52.254;12.988;2022-09-30T17:30:04;6.13;;;5.03;;
5823;SDS011;2938;52.254;12.988;2022-09-30T17:32:30;10.68;;;4.93;;
5823;SDS011;2938;52.254;12.988;2022-09-30T17:34:55;8.13;;;4.85;;
5823;SDS011;2938;52.254;12.988;2022-09-30T17:37:21;10.85;;;6.18;;
5823;SDS011;2938;52.254;12.988;2022-09-30T17:39:46;10.77;;;5.20;;
5823;SDS011;2938;52.254;12.988;2022-09-30T17:42:12;7.15;;;6.28;;
5823;SDS011;2938;52.254;12.988;2022-09-30T17:44:56;25.20;;;17.92;;
5823;SDS011;2938;52.254;12.988;2022-09-30T17:47:22;28.52;;;18.92;;
5823;SDS011;2938;52.254;12.988;2022-09-30T17:49:47;20.65;;;15.13;;
5823;SDS011;2938;52.254;12.988;2022-09-30T17:52:13;28.20;;;18.92;;
5823;SDS011;2938;52.254;12.988;2022-09-30T17:54:39;36.97;;;22.45;;
5823;SDS011;2938;52.254;12.988;2022-09-30T17:57:04;24.08;;;16.73;;
5823;SDS011;2938;52.254;12.988;2022-09-30T17:59:31;17.33;;;11.75;;
5823;SDS011;2938;52.254;12.988;2022-09-30T18:01:56;16.30;;;10.43;;
5823;SDS011;2938;52.254;12.988;2022-09-30T18:04:21;18.83;;;12.50;;